Terminal Aerodrome Forecast
Issued by NWS Austin/San Antonio, TX

Home | Current Version | Previous Version | Text Only | Print | Product List | Glossary On
Versions: 1 2 3 4 5 6 7 8 9 10 11 12 13 14 15 16 17 18 19
000
FTUS44 KEWX 211325 AAA
TAFAUS
TAF AMD
KAUS 211325Z 2113/2218 17007KT P6SM SCT015 BKN250
      TEMPO 2113/2115 6SM BR BKN015
     FM211600 16009KT P6SM SCT040
     FM220800 16005KT P6SM OVC015
     FM221600 16010KT P6SM SCT040=

USA.gov is the U.S. government's official web portal to all federal, state and local government web resources and services.